sensor_id;sensor_type;location;lat;lon;timestamp;P1;durP1;ratioP1;P2;durP2;ratioP2
8213;SDS011;4148;47.974;7.824;2022-12-18T00:01:27;34.47;;;15.90;;
8213;SDS011;4148;47.974;7.824;2022-12-18T00:03:55;34.37;;;15.10;;
8213;SDS011;4148;47.974;7.824;2022-12-18T00:06:24;45.17;;;17.90;;
8213;SDS011;4148;47.974;7.824;2022-12-18T00:08:54;38.87;;;16.27;;
8213;SDS011;4148;47.974;7.824;2022-12-18T00:11:24;39.87;;;17.43;;
8213;SDS011;4148;47.974;7.824;2022-12-18T00:13:55;40.70;;;16.27;;
8213;SDS011;4148;47.974;7.824;2022-12-18T00:16:25;36.73;;;16.30;;
8213;SDS011;4148;47.974;7.824;2022-12-18T00:18:56;33.40;;;15.20;;
8213;SDS011;4148;47.974;7.824;2022-12-18T00:21:24;28.97;;;13.33;;
8213;SDS011;4148;47.974;7.824;2022-12-18T00:23:53;37.20;;;14.63;;
8213;SDS011;4148;47.974;7.824;2022-12-18T00:26:21;31.40;;;14.00;;
8213;SDS011;4148;47.974;7.824;2022-12-18T00:28:51;31.53;;;14.70;;
8213;SDS011;4148;47.974;7.824;2022-12-18T00:31:20;30.67;;;13.50;;
8213;SDS011;4148;47.974;7.824;2022-12-18T00:33:50;30.70;;;14.60;;
8213;SDS011;4148;47.974;7.824;2022-12-18T00:36:21;33.10;;;13.53;;
8213;SDS011;4148;47.974;7.824;2022-12-18T00:38:50;31.83;;;13.97;;
8213;SDS011;4148;47.974;7.824;2022-12-18T00:41:18;37.30;;;14.90;;
8213;SDS011;4148;47.974;7.824;2022-12-18T00:44:01;31.03;;;15.63;;
8213;SDS011;4148;47.974;7.824;2022-12-18T00:46:29;34.87;;;14.27;;
8213;SDS011;4148;47.974;7.824;2022-12-18T00:48:59;34.07;;;15.27;;
8213;SDS011;4148;47.974;7.824;2022-12-18T00:51:27;33.43;;;14.40;;
8213;SDS011;4148;47.974;7.824;2022-12-18T00:53:55;35.13;;;15.43;;
8213;SDS011;4148;47.974;7.824;2022-12-18T00:56:23;30.27;;;14.33;;
8213;SDS011;4148;47.974;7.824;2022-12-18T00:58:51;31.63;;;13.13;;
8213;SDS011;4148;47.974;7.824;2022-12-18T01:01:19;31.60;;;13.70;;
8213;SDS011;4148;47.974;7.824;2022-12-18T01:03:47;29.80;;;13.30;;
8213;SDS011;4148;47.974;7.824;2022-12-18T01:06:17;40.17;;;16.93;;
8213;SDS011;4148;47.974;7.824;2022-12-18T01:08:44;30.93;;;16.23;;
8213;SDS011;4148;47.974;7.824;2022-12-18T01:11:13;33.00;;;15.37;;
8213;SDS011;4148;47.974;7.824;2022-12-18T01:13:43;31.90;;;15.60;;
8213;SDS011;4148;47.974;7.824;2022-12-18T01:16:11;37.90;;;16.10;;
8213;SDS011;4148;47.974;7.824;2022-12-18T01:18:40;31.50;;;13.53;;
8213;SDS011;4148;47.974;7.824;2022-12-18T01:21:08;30.03;;;12.97;;
8213;SDS011;4148;47.974;7.824;2022-12-18T01:23:39;32.40;;;14.00;;
8213;SDS011;4148;47.974;7.824;2022-12-18T01:26:08;34.83;;;15.40;;
8213;SDS011;4148;47.974;7.824;2022-12-18T01:28:41;35.30;;;14.03;;
8213;SDS011;4148;47.974;7.824;2022-12-18T01:31:10;32.33;;;13.30;;
8213;SDS011;4148;47.974;7.824;2022-12-18T01:33:43;35.27;;;16.73;;
8213;SDS011;4148;47.974;7.824;2022-12-18T01:36:15;32.40;;;14.10;;
8213;SDS011;4148;47.974;7.824;2022-12-18T01:38:45;33.43;;;14.40;;
8213;SDS011;4148;47.974;7.824;2022-12-18T01:41:15;34.17;;;14.90;;
8213;SDS011;4148;47.974;7.824;2022-12-18T01:43:46;34.20;;;15.00;;
8213;SDS011;4148;47.974;7.824;2022-12-18T01:46:17;37.83;;;17.07;;
8213;SDS011;4148;47.974;7.824;2022-12-18T01:48:46;40.00;;;18.13;;
8213;SDS011;4148;47.974;7.824;2022-12-18T01:51:17;38.40;;;18.40;;
8213;SDS011;4148;47.974;7.824;2022-12-18T01:53:47;35.20;;;14.50;;
8213;SDS011;4148;47.974;7.824;2022-12-18T01:56:16;34.87;;;15.93;;
8213;SDS011;4148;47.974;7.824;2022-12-18T01:58:48;33.13;;;14.40;;
8213;SDS011;4148;47.974;7.824;2022-12-18T02:01:21;37.13;;;15.00;;
8213;SDS011;4148;47.974;7.824;2022-12-18T02:03:51;37.50;;;15.30;;
8213;SDS011;4148;47.974;7.824;2022-12-18T02:06:20;36.63;;;14.53;;
8213;SDS011;4148;47.974;7.824;2022-12-18T02:08:59;43.30;;;16.93;;
8213;SDS011;4148;47.974;7.824;2022-12-18T02:11:39;37.63;;;15.30;;
8213;SDS011;4148;47.974;7.824;2022-12-18T02:14:17;45.93;;;18.30;;
8213;SDS011;4148;47.974;7.824;2022-12-18T02:16:55;33.73;;;15.60;;
8213;SDS011;4148;47.974;7.824;2022-12-18T02:19:36;33.93;;;14.93;;
8213;SDS011;4148;47.974;7.824;2022-12-18T02:22:14;36.40;;;13.90;;
8213;SDS011;4148;47.974;7.824;2022-12-18T02:24:57;44.57;;;15.23;;
8213;SDS011;4148;47.974;7.824;2022-12-18T02:27:33;42.90;;;17.63;;
8213;SDS011;4148;47.974;7.824;2022-12-18T02:30:04;40.37;;;15.40;;
8213;SDS011;4148;47.974;7.824;2022-12-18T02:32:34;32.80;;;15.33;;
8213;SDS011;4148;47.974;7.824;2022-12-18T02:35:07;33.37;;;14.37;;
8213;SDS011;4148;47.974;7.824;2022-12-18T02:37:39;38.50;;;16.03;;
8213;SDS011;4148;47.974;7.824;2022-12-18T02:40:09;34.73;;;15.80;;
8213;SDS011;4148;47.974;7.824;2022-12-18T02:42:40;35.43;;;15.80;;
8213;SDS011;4148;47.974;7.824;2022-12-18T02:45:08;37.50;;;16.23;;
8213;SDS011;4148;47.974;7.824;2022-12-18T02:47:38;34.73;;;15.13;;
8213;SDS011;4148;47.974;7.824;2022-12-18T02:50:10;33.87;;;15.63;;
8213;SDS011;4148;47.974;7.824;2022-12-18T02:52:48;34.13;;;14.63;;
8213;SDS011;4148;47.974;7.824;2022-12-18T02:55:26;35.60;;;14.50;;
8213;SDS011;4148;47.974;7.824;2022-12-18T02:58:03;35.53;;;15.83;;
8213;SDS011;4148;47.974;7.824;2022-12-18T03:00:39;35.80;;;15.53;;
8213;SDS011;4148;47.974;7.824;2022-12-18T03:03:10;38.07;;;15.57;;
8213;SDS011;4148;47.974;7.824;2022-12-18T03:05:43;35.87;;;16.00;;
8213;SDS011;4148;47.974;7.824;2022-12-18T03:08:16;48.03;;;18.33;;
8213;SDS011;4148;47.974;7.824;2022-12-18T03:10:48;33.63;;;16.37;;
8213;SDS011;4148;47.974;7.824;2022-12-18T03:13:22;33.43;;;13.90;;
8213;SDS011;4148;47.974;7.824;2022-12-18T03:15:54;31.83;;;13.93;;
8213;SDS011;4148;47.974;7.824;2022-12-18T03:18:26;35.00;;;14.43;;
8213;SDS011;4148;47.974;7.824;2022-12-18T03:21:02;31.73;;;14.47;;
8213;SDS011;4148;47.974;7.824;2022-12-18T03:23:34;32.73;;;15.13;;
8213;SDS011;4148;47.974;7.824;2022-12-18T03:26:05;34.77;;;14.13;;
8213;SDS011;4148;47.974;7.824;2022-12-18T03:28:38;33.57;;;15.27;;
8213;SDS011;4148;47.974;7.824;2022-12-18T03:31:09;42.87;;;16.93;;
8213;SDS011;4148;47.974;7.824;2022-12-18T03:33:41;41.00;;;15.70;;
8213;SDS011;4148;47.974;7.824;2022-12-18T03:36:12;40.30;;;17.83;;
8213;SDS011;4148;47.974;7.824;2022-12-18T03:38:41;33.43;;;15.33;;
8213;SDS011;4148;47.974;7.824;2022-12-18T03:41:11;34.10;;;13.97;;
8213;SDS011;4148;47.974;7.824;2022-12-18T03:43:47;27.30;;;12.87;;
8213;SDS011;4148;47.974;7.824;2022-12-18T03:46:21;37.30;;;14.47;;
8213;SDS011;4148;47.974;7.824;2022-12-18T03:48:56;34.00;;;14.40;;
8213;SDS011;4148;47.974;7.824;2022-12-18T03:51:30;29.40;;;14.53;;
8213;SDS011;4148;47.974;7.824;2022-12-18T03:54:06;34.13;;;13.93;;
8213;SDS011;4148;47.974;7.824;2022-12-18T03:56:37;37.77;;;14.43;;
8213;SDS011;4148;47.974;7.824;2022-12-18T03:59:10;31.23;;;13.30;;
8213;SDS011;4148;47.974;7.824;2022-12-18T04:01:40;29.83;;;13.37;;
8213;SDS011;4148;47.974;7.824;2022-12-18T04:04:11;28.87;;;12.60;;
8213;SDS011;4148;47.974;7.824;2022-12-18T04:06:41;34.30;;;13.33;;
8213;SDS011;4148;47.974;7.824;2022-12-18T04:09:12;35.23;;;15.90;;
8213;SDS011;4148;47.974;7.824;2022-12-18T04:11:41;36.67;;;14.50;;
8213;SDS011;4148;47.974;7.824;2022-12-18T04:14:11;33.63;;;13.17;;
8213;SDS011;4148;47.974;7.824;2022-12-18T04:16:43;32.70;;;14.07;;
8213;SDS011;4148;47.974;7.824;2022-12-18T04:19:11;31.13;;;14.30;;
8213;SDS011;4148;47.974;7.824;2022-12-18T04:21:39;34.30;;;15.00;;
8213;SDS011;4148;47.974;7.824;2022-12-18T04:24:07;28.00;;;13.00;;
8213;SDS011;4148;47.974;7.824;2022-12-18T04:26:35;36.77;;;14.27;;
8213;SDS011;4148;47.974;7.824;2022-12-18T04:29:04;29.47;;;13.47;;
8213;SDS011;4148;47.974;7.824;2022-12-18T04:31:33;39.20;;;14.60;;
8213;SDS011;4148;47.974;7.824;2022-12-18T04:34:01;32.77;;;12.83;;
8213;SDS011;4148;47.974;7.824;2022-12-18T04:36:29;32.23;;;14.27;;
8213;SDS011;4148;47.974;7.824;2022-12-18T04:38:57;35.40;;;15.17;;
8213;SDS011;4148;47.974;7.824;2022-12-18T04:41:25;39.93;;;15.77;;
8213;SDS011;4148;47.974;7.824;2022-12-18T04:43:53;31.27;;;14.57;;
8213;SDS011;4148;47.974;7.824;2022-12-18T04:46:21;35.07;;;12.90;;
8213;SDS011;4148;47.974;7.824;2022-12-18T04:48:50;26.73;;;11.00;;
8213;SDS011;4148;47.974;7.824;2022-12-18T04:51:18;27.67;;;12.17;;
8213;SDS011;4148;47.974;7.824;2022-12-18T04:53:51;32.67;;;12.03;;
8213;SDS011;4148;47.974;7.824;2022-12-18T04:56:19;25.47;;;11.00;;
8213;SDS011;4148;47.974;7.824;2022-12-18T04:58:48;23.20;;;11.27;;
8213;SDS011;4148;47.974;7.824;2022-12-18T05:01:17;24.43;;;10.67;;
8213;SDS011;4148;47.974;7.824;2022-12-18T05:03:45;26.87;;;11.23;;
8213;SDS011;4148;47.974;7.824;2022-12-18T05:06:14;31.23;;;11.23;;
8213;SDS011;4148;47.974;7.824;2022-12-18T05:08:42;26.13;;;10.87;;
8213;SDS011;4148;47.974;7.824;2022-12-18T05:11:12;27.73;;;13.20;;
8213;SDS011;4148;47.974;7.824;2022-12-18T05:13:42;22.93;;;11.07;;
8213;SDS011;4148;47.974;7.824;2022-12-18T05:16:11;28.30;;;13.17;;
8213;SDS011;4148;47.974;7.824;2022-12-18T05:18:40;20.70;;;11.10;;
8213;SDS011;4148;47.974;7.824;2022-12-18T05:21:08;24.57;;;11.50;;
8213;SDS011;4148;47.974;7.824;2022-12-18T05:23:37;21.50;;;10.93;;
8213;SDS011;4148;47.974;7.824;2022-12-18T05:26:06;22.87;;;11.23;;
8213;SDS011;4148;47.974;7.824;2022-12-18T05:28:34;24.13;;;10.90;;
8213;SDS011;4148;47.974;7.824;2022-12-18T05:31:03;21.77;;;9.93;;
8213;SDS011;4148;47.974;7.824;2022-12-18T05:33:32;24.37;;;11.50;;
8213;SDS011;4148;47.974;7.824;2022-12-18T05:36:02;37.13;;;13.53;;
8213;SDS011;4148;47.974;7.824;2022-12-18T05:38:32;39.60;;;15.27;;
8213;SDS011;4148;47.974;7.824;2022-12-18T05:41:02;34.57;;;14.40;;
8213;SDS011;4148;47.974;7.824;2022-12-18T05:43:31;32.10;;;14.30;;
8213;SDS011;4148;47.974;7.824;2022-12-18T05:46:02;40.87;;;15.20;;
8213;SDS011;4148;47.974;7.824;2022-12-18T05:48:31;32.03;;;13.30;;
8213;SDS011;4148;47.974;7.824;2022-12-18T05:51:03;40.43;;;14.97;;
8213;SDS011;4148;47.974;7.824;2022-12-18T05:53:33;38.10;;;15.33;;
8213;SDS011;4148;47.974;7.824;2022-12-18T05:56:04;33.80;;;14.30;;
8213;SDS011;4148;47.974;7.824;2022-12-18T05:58:34;41.80;;;14.43;;
8213;SDS011;4148;47.974;7.824;2022-12-18T06:01:06;34.03;;;14.00;;
8213;SDS011;4148;47.974;7.824;2022-12-18T06:03:35;39.27;;;15.07;;
8213;SDS011;4148;47.974;7.824;2022-12-18T06:06:03;43.40;;;15.80;;
8213;SDS011;4148;47.974;7.824;2022-12-18T06:08:39;38.63;;;13.37;;
8213;SDS011;4148;47.974;7.824;2022-12-18T06:11:15;34.30;;;13.93;;
8213;SDS011;4148;47.974;7.824;2022-12-18T06:13:45;44.07;;;14.67;;
8213;SDS011;4148;47.974;7.824;2022-12-18T06:16:13;33.33;;;13.80;;
8213;SDS011;4148;47.974;7.824;2022-12-18T06:18:41;36.03;;;14.40;;
8213;SDS011;4148;47.974;7.824;2022-12-18T06:21:09;36.23;;;14.53;;
8213;SDS011;4148;47.974;7.824;2022-12-18T06:23:37;39.27;;;15.07;;
8213;SDS011;4148;47.974;7.824;2022-12-18T06:26:06;31.90;;;14.97;;
8213;SDS011;4148;47.974;7.824;2022-12-18T06:28:37;37.50;;;13.87;;
8213;SDS011;4148;47.974;7.824;2022-12-18T06:31:05;30.27;;;13.03;;
8213;SDS011;4148;47.974;7.824;2022-12-18T06:33:34;28.43;;;11.00;;
8213;SDS011;4148;47.974;7.824;2022-12-18T06:36:03;22.50;;;11.50;;
8213;SDS011;4148;47.974;7.824;2022-12-18T06:38:33;23.00;;;11.97;;
8213;SDS011;4148;47.974;7.824;2022-12-18T06:41:06;28.63;;;10.57;;
8213;SDS011;4148;47.974;7.824;2022-12-18T06:43:36;24.13;;;10.80;;
8213;SDS011;4148;47.974;7.824;2022-12-18T06:46:05;25.40;;;11.30;;
8213;SDS011;4148;47.974;7.824;2022-12-18T06:48:33;21.90;;;10.33;;
8213;SDS011;4148;47.974;7.824;2022-12-18T06:51:02;23.13;;;11.83;;
8213;SDS011;4148;47.974;7.824;2022-12-18T06:53:31;25.50;;;11.00;;
8213;SDS011;4148;47.974;7.824;2022-12-18T06:55:59;24.20;;;10.90;;
8213;SDS011;4148;47.974;7.824;2022-12-18T06:58:36;27.20;;;10.47;;
8213;SDS011;4148;47.974;7.824;2022-12-18T07:01:05;20.50;;;9.10;;
8213;SDS011;4148;47.974;7.824;2022-12-18T07:03:35;25.70;;;10.20;;
8213;SDS011;4148;47.974;7.824;2022-12-18T07:06:03;21.63;;;8.70;;
8213;SDS011;4148;47.974;7.824;2022-12-18T07:08:32;18.67;;;10.27;;
8213;SDS011;4148;47.974;7.824;2022-12-18T07:11:02;21.70;;;10.43;;
8213;SDS011;4148;47.974;7.824;2022-12-18T07:13:30;24.50;;;10.37;;
8213;SDS011;4148;47.974;7.824;2022-12-18T07:16:07;19.70;;;9.17;;
8213;SDS011;4148;47.974;7.824;2022-12-18T07:18:46;21.37;;;8.80;;
8213;SDS011;4148;47.974;7.824;2022-12-18T07:21:14;25.63;;;10.63;;
8213;SDS011;4148;47.974;7.824;2022-12-18T07:23:43;25.10;;;11.40;;
8213;SDS011;4148;47.974;7.824;2022-12-18T07:26:15;28.90;;;10.73;;
8213;SDS011;4148;47.974;7.824;2022-12-18T07:28:44;30.73;;;11.57;;
8213;SDS011;4148;47.974;7.824;2022-12-18T07:31:14;27.43;;;12.20;;
8213;SDS011;4148;47.974;7.824;2022-12-18T07:33:43;43.70;;;14.60;;
8213;SDS011;4148;47.974;7.824;2022-12-18T07:36:12;44.40;;;16.17;;
8213;SDS011;4148;47.974;7.824;2022-12-18T07:38:40;69.97;;;19.80;;
8213;SDS011;4148;47.974;7.824;2022-12-18T07:41:09;74.83;;;24.93;;
8213;SDS011;4148;47.974;7.824;2022-12-18T07:43:39;73.37;;;21.23;;
8213;SDS011;4148;47.974;7.824;2022-12-18T07:46:08;75.60;;;22.87;;
8213;SDS011;4148;47.974;7.824;2022-12-18T07:48:40;74.43;;;24.30;;
8213;SDS011;4148;47.974;7.824;2022-12-18T07:51:10;61.90;;;19.50;;
8213;SDS011;4148;47.974;7.824;2022-12-18T07:53:38;50.93;;;17.90;;
8213;SDS011;4148;47.974;7.824;2022-12-18T07:56:09;49.27;;;18.80;;
8213;SDS011;4148;47.974;7.824;2022-12-18T07:58:56;45.20;;;17.13;;
8213;SDS011;4148;47.974;7.824;2022-12-18T08:01:24;49.63;;;17.23;;
8213;SDS011;4148;47.974;7.824;2022-12-18T08:03:54;44.63;;;15.07;;
8213;SDS011;4148;47.974;7.824;2022-12-18T08:06:21;41.90;;;16.03;;
8213;SDS011;4148;47.974;7.824;2022-12-18T08:08:50;37.93;;;16.20;;
8213;SDS011;4148;47.974;7.824;2022-12-18T08:11:19;35.67;;;16.47;;
8213;SDS011;4148;47.974;7.824;2022-12-18T08:13:47;36.13;;;15.00;;
8213;SDS011;4148;47.974;7.824;2022-12-18T08:16:15;34.50;;;14.17;;
8213;SDS011;4148;47.974;7.824;2022-12-18T08:18:44;29.87;;;13.70;;
8213;SDS011;4148;47.974;7.824;2022-12-18T08:21:15;34.40;;;13.07;;
8213;SDS011;4148;47.974;7.824;2022-12-18T08:23:47;27.07;;;10.90;;
8213;SDS011;4148;47.974;7.824;2022-12-18T08:26:16;25.83;;;13.03;;
8213;SDS011;4148;47.974;7.824;2022-12-18T08:28:46;27.43;;;13.30;;
8213;SDS011;4148;47.974;7.824;2022-12-18T08:31:14;32.27;;;13.20;;
8213;SDS011;4148;47.974;7.824;2022-12-18T08:33:43;28.40;;;13.40;;
8213;SDS011;4148;47.974;7.824;2022-12-18T08:36:13;30.73;;;14.30;;
8213;SDS011;4148;47.974;7.824;2022-12-18T08:38:41;29.50;;;14.13;;
8213;SDS011;4148;47.974;7.824;2022-12-18T08:41:09;26.60;;;12.90;;
8213;SDS011;4148;47.974;7.824;2022-12-18T08:43:38;29.07;;;13.03;;
8213;SDS011;4148;47.974;7.824;2022-12-18T08:46:25;26.93;;;14.63;;
8213;SDS011;4148;47.974;7.824;2022-12-18T08:48:54;33.10;;;14.03;;
8213;SDS011;4148;47.974;7.824;2022-12-18T08:51:24;29.27;;;13.80;;
8213;SDS011;4148;47.974;7.824;2022-12-18T08:53:51;32.30;;;14.83;;
8213;SDS011;4148;47.974;7.824;2022-12-18T08:56:19;28.80;;;14.20;;
8213;SDS011;4148;47.974;7.824;2022-12-18T08:58:47;37.40;;;15.40;;
8213;SDS011;4148;47.974;7.824;2022-12-18T09:01:19;33.43;;;15.10;;
8213;SDS011;4148;47.974;7.824;2022-12-18T09:03:47;33.63;;;15.20;;
8213;SDS011;4148;47.974;7.824;2022-12-18T09:06:16;31.00;;;16.87;;
8213;SDS011;4148;47.974;7.824;2022-12-18T09:08:46;36.17;;;14.90;;
8213;SDS011;4148;47.974;7.824;2022-12-18T09:11:15;32.90;;;16.00;;
8213;SDS011;4148;47.974;7.824;2022-12-18T09:13:47;30.07;;;15.87;;
8213;SDS011;4148;47.974;7.824;2022-12-18T09:16:15;35.20;;;14.27;;
8213;SDS011;4148;47.974;7.824;2022-12-18T09:18:43;34.00;;;16.67;;
8213;SDS011;4148;47.974;7.824;2022-12-18T09:21:11;39.33;;;18.37;;
8213;SDS011;4148;47.974;7.824;2022-12-18T09:23:41;36.73;;;17.07;;
8213;SDS011;4148;47.974;7.824;2022-12-18T09:26:10;36.00;;;16.70;;
8213;SDS011;4148;47.974;7.824;2022-12-18T09:28:38;36.67;;;15.30;;
8213;SDS011;4148;47.974;7.824;2022-12-18T09:31:07;38.10;;;15.57;;
8213;SDS011;4148;47.974;7.824;2022-12-18T09:33:36;35.80;;;17.07;;
8213;SDS011;4148;47.974;7.824;2022-12-18T09:36:06;33.33;;;15.67;;
8213;SDS011;4148;47.974;7.824;2022-12-18T09:38:36;33.47;;;15.87;;
8213;SDS011;4148;47.974;7.824;2022-12-18T09:41:05;32.00;;;16.53;;
8213;SDS011;4148;47.974;7.824;2022-12-18T09:43:46;37.50;;;19.00;;
8213;SDS011;4148;47.974;7.824;2022-12-18T09:46:17;40.17;;;19.97;;
8213;SDS011;4148;47.974;7.824;2022-12-18T09:48:54;44.20;;;19.53;;
8213;SDS011;4148;47.974;7.824;2022-12-18T09:51:27;41.43;;;19.37;;
8213;SDS011;4148;47.974;7.824;2022-12-18T09:54:00;34.23;;;18.47;;
8213;SDS011;4148;47.974;7.824;2022-12-18T09:56:34;39.10;;;19.53;;
8213;SDS011;4148;47.974;7.824;2022-12-18T09:59:06;35.30;;;18.47;;
8213;SDS011;4148;47.974;7.824;2022-12-18T10:01:45;33.83;;;18.43;;
8213;SDS011;4148;47.974;7.824;2022-12-18T10:04:13;37.43;;;18.83;;
8213;SDS011;4148;47.974;7.824;2022-12-18T10:06:42;40.23;;;19.70;;
8213;SDS011;4148;47.974;7.824;2022-12-18T10:09:19;42.27;;;19.80;;
8213;SDS011;4148;47.974;7.824;2022-12-18T10:12:02;35.97;;;18.73;;
8213;SDS011;4148;47.974;7.824;2022-12-18T10:14:39;36.83;;;17.93;;
8213;SDS011;4148;47.974;7.824;2022-12-18T10:17:15;32.00;;;18.10;;
8213;SDS011;4148;47.974;7.824;2022-12-18T10:19:51;37.13;;;20.13;;
8213;SDS011;4148;47.974;7.824;2022-12-18T10:22:29;39.43;;;20.43;;
8213;SDS011;4148;47.974;7.824;2022-12-18T10:25:05;32.93;;;17.87;;
8213;SDS011;4148;47.974;7.824;2022-12-18T10:27:44;34.30;;;19.97;;
8213;SDS011;4148;47.974;7.824;2022-12-18T10:30:14;37.80;;;17.77;;
8213;SDS011;4148;47.974;7.824;2022-12-18T10:32:44;33.77;;;18.03;;
8213;SDS011;4148;47.974;7.824;2022-12-18T10:35:15;39.10;;;18.83;;
8213;SDS011;4148;47.974;7.824;2022-12-18T10:37:59;36.43;;;19.10;;
8213;SDS011;4148;47.974;7.824;2022-12-18T10:40:29;35.40;;;18.60;;
8213;SDS011;4148;47.974;7.824;2022-12-18T10:43:10;37.30;;;19.37;;
8213;SDS011;4148;47.974;7.824;2022-12-18T10:45:42;33.50;;;17.53;;
8213;SDS011;4148;47.974;7.824;2022-12-18T10:48:24;30.40;;;17.80;;
8213;SDS011;4148;47.974;7.824;2022-12-18T10:50:52;34.30;;;18.27;;
8213;SDS011;4148;47.974;7.824;2022-12-18T10:53:38;35.40;;;20.07;;
8213;SDS011;4148;47.974;7.824;2022-12-18T10:56:09;34.87;;;19.67;;
8213;SDS011;4148;47.974;7.824;2022-12-18T10:58:38;38.40;;;19.40;;
8213;SDS011;4148;47.974;7.824;2022-12-18T11:01:09;29.63;;;16.90;;
8213;SDS011;4148;47.974;7.824;2022-12-18T11:03:39;30.43;;;17.83;;
8213;SDS011;4148;47.974;7.824;2022-12-18T11:06:10;31.53;;;19.23;;
8213;SDS011;4148;47.974;7.824;2022-12-18T11:08:39;26.23;;;16.97;;
8213;SDS011;4148;47.974;7.824;2022-12-18T11:11:15;29.10;;;16.80;;
8213;SDS011;4148;47.974;7.824;2022-12-18T11:13:52;31.20;;;18.07;;
8213;SDS011;4148;47.974;7.824;2022-12-18T11:16:28;32.47;;;18.53;;
8213;SDS011;4148;47.974;7.824;2022-12-18T11:19:08;35.47;;;20.60;;
8213;SDS011;4148;47.974;7.824;2022-12-18T11:21:48;33.10;;;20.03;;
8213;SDS011;4148;47.974;7.824;2022-12-18T11:24:29;31.93;;;19.70;;
8213;SDS011;4148;47.974;7.824;2022-12-18T11:26:59;41.60;;;20.70;;
8213;SDS011;4148;47.974;7.824;2022-12-18T11:29:31;37.43;;;19.60;;
8213;SDS011;4148;47.974;7.824;2022-12-18T11:32:18;37.00;;;20.50;;
8213;SDS011;4148;47.974;7.824;2022-12-18T11:34:55;35.23;;;18.30;;
8213;SDS011;4148;47.974;7.824;2022-12-18T11:37:30;36.23;;;20.67;;
8213;SDS011;4148;47.974;7.824;2022-12-18T11:40:01;40.67;;;20.93;;
8213;SDS011;4148;47.974;7.824;2022-12-18T11:42:35;36.47;;;17.97;;
8213;SDS011;4148;47.974;7.824;2022-12-18T11:45:18;28.43;;;17.73;;
8213;SDS011;4148;47.974;7.824;2022-12-18T11:47:54;36.00;;;18.80;;
8213;SDS011;4148;47.974;7.824;2022-12-18T11:50:28;32.23;;;17.50;;
8213;SDS011;4148;47.974;7.824;2022-12-18T11:52:59;32.97;;;18.70;;
8213;SDS011;4148;47.974;7.824;2022-12-18T11:55:33;35.57;;;18.20;;
8213;SDS011;4148;47.974;7.824;2022-12-18T11:58:07;41.20;;;18.83;;
8213;SDS011;4148;47.974;7.824;2022-12-18T12:00:44;35.50;;;18.30;;
8213;SDS011;4148;47.974;7.824;2022-12-18T12:03:27;32.87;;;18.03;;
8213;SDS011;4148;47.974;7.824;2022-12-18T12:06:12;35.07;;;17.70;;
8213;SDS011;4148;47.974;7.824;2022-12-18T12:08:48;32.40;;;18.77;;
8213;SDS011;4148;47.974;7.824;2022-12-18T12:11:30;37.20;;;19.03;;
8213;SDS011;4148;47.974;7.824;2022-12-18T12:14:07;40.53;;;19.47;;
8213;SDS011;4148;47.974;7.824;2022-12-18T12:16:47;34.07;;;18.77;;
8213;SDS011;4148;47.974;7.824;2022-12-18T12:19:26;35.60;;;18.30;;
8213;SDS011;4148;47.974;7.824;2022-12-18T12:22:04;37.80;;;20.17;;
8213;SDS011;4148;47.974;7.824;2022-12-18T12:24:42;36.73;;;18.70;;
8213;SDS011;4148;47.974;7.824;2022-12-18T12:27:18;32.80;;;18.60;;
8213;SDS011;4148;47.974;7.824;2022-12-18T12:29:55;39.30;;;21.03;;
8213;SDS011;4148;47.974;7.824;2022-12-18T12:32:33;40.80;;;20.63;;
8213;SDS011;4148;47.974;7.824;2022-12-18T12:35:18;39.90;;;19.67;;
8213;SDS011;4148;47.974;7.824;2022-12-18T12:38:00;39.20;;;20.73;;
8213;SDS011;4148;47.974;7.824;2022-12-18T12:40:34;36.57;;;19.47;;
8213;SDS011;4148;47.974;7.824;2022-12-18T12:43:27;36.57;;;18.40;;
8213;SDS011;4148;47.974;7.824;2022-12-18T12:46:03;37.07;;;20.27;;
8213;SDS011;4148;47.974;7.824;2022-12-18T12:48:35;37.50;;;19.57;;
8213;SDS011;4148;47.974;7.824;2022-12-18T12:51:12;33.43;;;18.43;;
8213;SDS011;4148;47.974;7.824;2022-12-18T12:53:43;35.33;;;19.10;;
8213;SDS011;4148;47.974;7.824;2022-12-18T12:56:13;35.10;;;18.43;;
8213;SDS011;4148;47.974;7.824;2022-12-18T12:58:50;37.60;;;19.90;;
8213;SDS011;4148;47.974;7.824;2022-12-18T13:01:28;38.63;;;18.90;;
8213;SDS011;4148;47.974;7.824;2022-12-18T13:04:08;30.10;;;18.10;;
8213;SDS011;4148;47.974;7.824;2022-12-18T13:06:53;38.47;;;19.60;;
8213;SDS011;4148;47.974;7.824;2022-12-18T13:09:29;38.63;;;19.67;;
8213;SDS011;4148;47.974;7.824;2022-12-18T13:12:01;35.77;;;18.37;;
8213;SDS011;4148;47.974;7.824;2022-12-18T13:14:48;38.97;;;21.40;;
8213;SDS011;4148;47.974;7.824;2022-12-18T13:17:26;32.27;;;17.97;;
8213;SDS011;4148;47.974;7.824;2022-12-18T13:20:07;35.00;;;20.80;;
8213;SDS011;4148;47.974;7.824;2022-12-18T13:22:44;36.67;;;20.80;;
8213;SDS011;4148;47.974;7.824;2022-12-18T13:25:29;36.87;;;22.20;;
8213;SDS011;4148;47.974;7.824;2022-12-18T13:28:10;39.00;;;21.20;;
8213;SDS011;4148;47.974;7.824;2022-12-18T13:30:46;38.70;;;20.60;;
8213;SDS011;4148;47.974;7.824;2022-12-18T13:33:34;42.77;;;21.97;;
8213;SDS011;4148;47.974;7.824;2022-12-18T13:36:31;42.13;;;19.90;;
8213;SDS011;4148;47.974;7.824;2022-12-18T13:45:39;35.47;;;18.90;;
8213;SDS011;4148;47.974;7.824;2022-12-18T13:48:16;33.90;;;18.63;;
8213;SDS011;4148;47.974;7.824;2022-12-18T13:50:48;35.90;;;19.43;;
8213;SDS011;4148;47.974;7.824;2022-12-18T13:53:20;38.37;;;19.73;;
8213;SDS011;4148;47.974;7.824;2022-12-18T13:55:52;37.93;;;20.57;;
8213;SDS011;4148;47.974;7.824;2022-12-18T13:58:20;36.67;;;21.20;;
8213;SDS011;4148;47.974;7.824;2022-12-18T14:00:48;37.40;;;20.17;;
8213;SDS011;4148;47.974;7.824;2022-12-18T14:03:18;39.10;;;20.77;;
8213;SDS011;4148;47.974;7.824;2022-12-18T14:05:52;35.60;;;20.33;;
8213;SDS011;4148;47.974;7.824;2022-12-18T14:08:22;47.53;;;26.53;;
8213;SDS011;4148;47.974;7.824;2022-12-18T14:10:54;35.73;;;19.60;;
8213;SDS011;4148;47.974;7.824;2022-12-18T14:13:24;39.20;;;20.27;;
8213;SDS011;4148;47.974;7.824;2022-12-18T14:15:56;41.93;;;23.53;;
8213;SDS011;4148;47.974;7.824;2022-12-18T14:18:29;38.93;;;20.37;;
8213;SDS011;4148;47.974;7.824;2022-12-18T14:21:04;35.33;;;19.77;;
8213;SDS011;4148;47.974;7.824;2022-12-18T14:23:34;38.10;;;20.30;;
8213;SDS011;4148;47.974;7.824;2022-12-18T14:26:19;35.50;;;19.93;;
8213;SDS011;4148;47.974;7.824;2022-12-18T14:28:49;36.63;;;18.90;;
8213;SDS011;4148;47.974;7.824;2022-12-18T14:31:18;34.97;;;19.30;;
8213;SDS011;4148;47.974;7.824;2022-12-18T14:33:46;40.07;;;20.07;;
8213;SDS011;4148;47.974;7.824;2022-12-18T14:36:15;34.50;;;20.60;;
8213;SDS011;4148;47.974;7.824;2022-12-18T14:38:47;37.50;;;21.43;;
8213;SDS011;4148;47.974;7.824;2022-12-18T14:41:18;38.63;;;20.20;;
8213;SDS011;4148;47.974;7.824;2022-12-18T14:43:47;35.17;;;19.57;;
8213;SDS011;4148;47.974;7.824;2022-12-18T14:46:25;37.37;;;20.03;;
8213;SDS011;4148;47.974;7.824;2022-12-18T14:48:56;34.67;;;18.97;;
8213;SDS011;4148;47.974;7.824;2022-12-18T14:51:24;35.90;;;21.47;;
8213;SDS011;4148;47.974;7.824;2022-12-18T14:53:54;43.43;;;21.20;;
8213;SDS011;4148;47.974;7.824;2022-12-18T14:56:26;34.90;;;19.23;;
8213;SDS011;4148;47.974;7.824;2022-12-18T14:58:56;33.73;;;19.20;;
8213;SDS011;4148;47.974;7.824;2022-12-18T15:01:27;37.83;;;20.30;;
8213;SDS011;4148;47.974;7.824;2022-12-18T15:03:57;35.03;;;20.10;;
8213;SDS011;4148;47.974;7.824;2022-12-18T15:06:28;41.63;;;22.10;;
8213;SDS011;4148;47.974;7.824;2022-12-18T15:08:59;38.03;;;20.37;;
8213;SDS011;4148;47.974;7.824;2022-12-18T15:11:43;40.27;;;21.50;;
8213;SDS011;4148;47.974;7.824;2022-12-18T15:14:23;50.17;;;25.10;;
8213;SDS011;4148;47.974;7.824;2022-12-18T15:16:57;45.97;;;23.73;;
8213;SDS011;4148;47.974;7.824;2022-12-18T15:19:28;50.40;;;26.30;;
8213;SDS011;4148;47.974;7.824;2022-12-18T15:22:02;44.20;;;23.60;;
8213;SDS011;4148;47.974;7.824;2022-12-18T15:24:32;51.53;;;27.97;;